x

Mount Louis (45138) Wave Buoy

3:00pm - Wed 28th Sep 2016 All times are UTC.

  • Sig Wave height 1.6ft
  • Peak Period 4s
  • Wind
    9mph, 11mph gusts
  • Sea Temp 49°f
  • Air Temp 49°f
  • Sea Pressure 1032.9mb

More Historic Weather Station data

Upgrade to MSW Pro to gain access to the past 30 days of data for over 8000 Wavebouys and Weather Stations around the globe.

Join Pro

Comparision Forecast

View Surf forecast
   
Wed 09/28 3:00pm 1.6ft 4s 9 11 mph 1032.9mb 49f 49f
2:00pm 2ft 4s 11 13 mph 1032.7mb 48f 49f
1:00pm 2ft 4s 13 16 mph 1031.9mb 48f 49f
12:00pm 2ft 4s 13 16 mph 1031mb 48f 49f
11:00am 1.6ft 4s 11 13 mph 1030.4mb 48f 48f
10:00am 1.3ft 3s 9 11 mph 1029.5mb 48f 48f
9:00am 1ft 3s 9 13 mph 1028.5mb 48f 48f
8:00am 1ft 12s 13 16 mph 1027.6mb 48f 48f
7:00am 1ft 11s 9 11 mph 1027.2mb 48f 48f
6:00am 1ft 11s 11 13 mph 1026.6mb 48f 48f
5:00am 1ft 11s 11 13 mph 1026.1mb 48f 48f
4:00am 1ft 11s 9 11 mph 1025.6mb 48f 47f
3:00am 1ft 11s 7 9 mph 1025.1mb 48f 47f
2:00am 1ft 12s 4 7 mph 1024.3mb 48f 47f
1:00am 1.3ft 12s 4 7 mph 1023.5mb 48f 47f
12:00am 1.3ft 12s 4
mph
1022.8mb 49f 47f
Tue 09/27 11:00pm 1.6ft 4s 4 7 mph 1022mb 49f 47f
10:00pm 2ft 5s 7
mph
1021.4mb 49f 46f
9:00pm 2.5ft 5s 7 9 mph 1020.5mb 49f 46f
8:00pm 2.5ft 5s 9 11 mph 1019.9mb 49f 46f
7:00pm 3ft 5s 11 13 mph 1018.8mb 49f 46f
6:00pm 3.5ft 5s 13 18 mph 1018.6mb 49f 45f
5:00pm 4ft 5s 11 13 mph 1018.1mb 49f 45f
4:00pm 4.5ft 5s 18 20 mph 1017.8mb 49f 44f
3:00pm 4.5ft 6s 18 22 mph 1017.5mb 49f 44f
2:00pm 5.5ft 5s 20 25 mph 1016.6mb 49f 45f
1:00pm 4.5ft 5s 22 29 mph 1015.5mb 49f 45f
12:00pm 4ft 5s 25 29 mph 1014.2mb 48f 46f
11:00am 3ft 4s 22 29 mph 1013.3mb 49f 47f
10:00am 2.5ft 5s 20 22 mph 1012.3mb 49f 49f
9:00am 2.5ft 5s 16 18 mph 1011.4mb 49f 49f
8:00am 3.5ft 6s 9 13 mph 1010.8mb 49f 50f
7:00am 4ft 6s 13 16 mph 1009.7mb 49f 51f
6:00am 4ft 6s 11
mph
1009.5mb 49f 50f
5:00am 4.5ft 6s 13 16 mph 1009.3mb 49f 49f
4:00am 5ft 6s 18 20 mph 1009mb 49f 49f
3:00am 6ft 6s 20 27 mph 1009.3mb 49f 50f
2:00am 5.5ft 7s 20 25 mph 1009.9mb 49f 50f
1:00am 6ft 6s 18 22 mph 1010.5mb 49f 50f
12:00am 7.5ft 6s 20 25 mph 1011.1mb 49f 50f
Mon 09/26 11:00pm 7ft 6s 27 34 mph 1010.4mb 49f 51f
10:00pm 6ft 6s 29 38 mph 1010.4mb 49f 51f
9:00pm 5ft 5s 27 36 mph 1010.8mb 49f 49f
8:00pm 3.5ft 4s 29 38 mph 1011.5mb 49f 49f
7:00pm 2.5ft 4s 22 29 mph 1012.7mb 49f 49f
6:00pm 2.5ft 4s 22 27 mph 1013.6mb 49f 48f
5:00pm 3ft 4s 20 22 mph 1014.5mb 49f 48f
4:00pm 3ft 5s 18 22 mph 1015.9mb 49f 48f
3:00pm 3.5ft 5s 18 22 mph 1016.5mb 49f 48f
2:00pm 3.5ft 5s 18 22 mph 1016.8mb 49f 48f
1:00pm 4ft 5s 18 22 mph 1016.7mb 49f 48f
12:00pm 4ft 5s 18 22 mph 1016.8mb 49f 48f
11:00am 3ft 5s 20 25 mph 1017mb 49f 48f
10:00am 2.5ft 4s 18 22 mph 1016.6mb 49f 48f
9:00am 2ft 3s 18 20 mph 1016.3mb 49f 48f
8:00am 1.3ft 4s 16 18 mph 1016.3mb 49f 49f
7:00am 1.6ft 4s 13 16 mph 1016.2mb 49f 49f
6:00am 2ft 4s 4
mph
1016.2mb 49f 49f
5:00am 2.5ft 4s 7 9 mph 1016mb 49f 50f
4:00am 2.5ft 4s 11 13 mph 1015.9mb 49f 50f
3:00am 2.5ft 4s 16 22 mph 1015.5mb 49f 50f
2:00am 3ft 4s 16 18 mph 1015.3mb 49f 50f
1:00am 2.5ft 4s 18 22 mph 1014.9mb 49f 51f
12:00am 2ft 4s 22 27 mph 1014.2mb 49f 52f
Sun 09/25 11:00pm 1.6ft 4s 13 16 mph 1013.6mb 49f 51f
10:00pm 1.6ft 4s 16 18 mph 1013mb 49f 51f
9:00pm 2ft 4s 9 13 mph 1012.8mb 49f 50f
8:00pm 2.5ft 4s 16 20 mph 1012.8mb 49f 50f
7:00pm 2.5ft 4s 16 18 mph 1012.4mb 49f 50f
6:00pm 3ft 4s 18 20 mph 1012.4mb 49f 49f
5:00pm 3.5ft 4s 18 20 mph 1012.4mb 49f 49f
4:00pm 3.5ft 4s 22 27 mph 1012.2mb 49f 49f
3:00pm 3.5ft 4s 20 25 mph 1012.1mb 49f 48f
2:00pm 3.5ft 4s 22 29 mph 1011.9mb 48f 48f
1:00pm 2.5ft 4s 20 25 mph 1011.7mb 48f 48f
12:00pm 3ft 4s 18 22 mph 1011.5mb 49f 47f
11:00am 3ft 4s 16 20 mph 1011.3mb 49f 47f
10:00am 3ft 4s 18 22 mph 1011.1mb 49f 47f
9:00am 3ft 4s 18 22 mph 1010.6mb 49f 47f
8:00am 2.5ft 4s 18 20 mph 1010.3mb 49f 47f
7:00am 2.5ft 4s 18 22 mph 1010.3mb 49f 47f
6:00am 2.5ft 5s 18 20 mph 1010.3mb 49f 47f
5:00am 2.5ft 4s 18 20 mph 1010.5mb 49f 47f
4:00am 3.5ft 4s 16 20 mph 1010.7mb 49f 47f
3:00am 3.5ft 5s 18 20 mph 1010.9mb 49f 47f
2:00am 4ft 4s 20 22 mph 1011.1mb 49f 47f
1:00am 4ft 4s 20 22 mph 1011.5mb 49f 48f
12:00am 3.5ft 5s 18 22 mph 1011.8mb 48f 48f
Sat 09/24 11:00pm 3.5ft 4s 18 20 mph 1011.7mb 49f 48f
10:00pm 3.5ft 4s 20 22 mph 1011.5mb 49f 48f
9:00pm 3ft 4s 27 31 mph 1011.1mb 49f 48f
8:00pm 3.5ft 4s 20 22 mph 1011.2mb 49f 48f
7:00pm 2.5ft 4s 20 25 mph 1011.3mb 49f 48f
6:00pm 2.5ft 4s 18 22 mph 1011.6mb 49f 48f
5:00pm 2.5ft 4s 18 22 mph 1012.2mb 49f 47f